TX86 weather

Methodist Hospital Alkek Heliport
Houston, Texas, United States

Public forecast

Using degrees Fahrenheit for public forecast. Weather courtesy of forecast.io.

Closest aviation weather report (METAR) to Methodist Hospital Alkek Heliport

Closest report is William P Hobby Airport, 7.4 nm (13.7 km) ESE. Retrieved 2020/01/25 03:53 UTC (39 minutes ago):

KHOU 250353Z 19006KT 10SM CLR 12/07 A3015 RMK AO2 SLP215 T01170067

Closest aviation forecast (TAF) to Methodist Hospital Alkek Heliport

Closest forecast is William P Hobby Airport, 7.4 nm (13.7 km) ESE. Retrieved 2020-01-25 00:22 UTC (4 hours ago):

TAF KHOU 242320Z 2500/2524 31006KT P6SM SKC FM251500 12007KT P6SM SCT250 FM251800 14012KT P6SM BKN200